Impacts TAF Board
For situational awareness. Not to be used for flight planning purposes.
IDs:

KHBG - Hattiesburg/Chain Mu, MS, US

Issued at 2328 UTC 17 Oct 2018
Updated at 0508 UTC 18 Oct 2018
Potential Impact None Slight Moderate High
Time<<18/18Z 18/19Z 18/20Z 18/21Z 18/22Z 18/23Z 19/00Z 19/01Z 19/02Z 19/03Z 19/04Z 19/05Z 19/06Z>>
Type PRVL PRVL PRVL PRVL PRVL PRVL
VIS >6 >6 >6 >6 >6 >6
CIG 50 50 50 50 50 50
Cover BKN BKN BKN BKN BKN BKN
FltCat VFR VFR VFR VFR VFR VFR
WX -- -- -- -- -- --
WDir 20 20 20 20 20 20
WSpd 6 6 6 6 6 6
WGst -- -- -- -- -- --
Raw TAF
KHBG 172328Z 1800/1824 03005KT P6SM BKN015 OVC025
  FM180200 02006KT P6SM BKN050 BKN100


METAR Board
Radar Display
Forecast Discussion
For situational awareness. Not to be used for flight planning purposes.